sensor_id;sensor_type;location;lat;lon;timestamp;P1;durP1;ratioP1;P2;durP2;ratioP2
61523;SDS011;47393;38.758;-9.164;2022-07-23T00:01:53;19.33;;;5.43;;
61523;SDS011;47393;38.758;-9.164;2022-07-23T00:08:09;17.05;;;5.63;;
61523;SDS011;47393;38.758;-9.164;2022-07-23T00:10:30;26.77;;;5.35;;
61523;SDS011;47393;38.758;-9.164;2022-07-23T00:12:39;20.60;;;5.18;;
61523;SDS011;47393;38.758;-9.164;2022-07-23T00:14:42;33.85;;;6.57;;
61523;SDS011;47393;38.758;-9.164;2022-07-23T00:16:44;17.55;;;5.25;;
61523;SDS011;47393;38.758;-9.164;2022-07-23T00:18:45;14.77;;;5.20;;
61523;SDS011;47393;38.758;-9.164;2022-07-23T00:20:49;21.05;;;4.95;;
61523;SDS011;47393;38.758;-9.164;2022-07-23T00:22:55;21.13;;;5.50;;
61523;SDS011;47393;38.758;-9.164;2022-07-23T00:24:57;15.88;;;5.35;;
61523;SDS011;47393;38.758;-9.164;2022-07-23T00:27:06;22.17;;;5.43;;
61523;SDS011;47393;38.758;-9.164;2022-07-23T00:29:46;19.52;;;4.40;;
61523;SDS011;47393;38.758;-9.164;2022-07-23T00:32:06;18.20;;;4.72;;
61523;SDS011;47393;38.758;-9.164;2022-07-23T00:34:50;15.75;;;5.05;;
61523;SDS011;47393;38.758;-9.164;2022-07-23T00:37:21;16.95;;;5.25;;
61523;SDS011;47393;38.758;-9.164;2022-07-23T00:40:16;20.52;;;5.35;;
61523;SDS011;47393;38.758;-9.164;2022-07-23T00:43:12;19.83;;;5.53;;
61523;SDS011;47393;38.758;-9.164;2022-07-23T00:46:18;24.42;;;5.75;;
61523;SDS011;47393;38.758;-9.164;2022-07-23T00:49:09;22.52;;;6.10;;
61523;SDS011;47393;38.758;-9.164;2022-07-23T00:52:22;20.75;;;5.03;;
61523;SDS011;47393;38.758;-9.164;2022-07-23T00:58:51;25.45;;;4.53;;
61523;SDS011;47393;38.758;-9.164;2022-07-23T01:01:54;23.35;;;6.07;;
61523;SDS011;47393;38.758;-9.164;2022-07-23T01:04:07;23.35;;;5.40;;
61523;SDS011;47393;38.758;-9.164;2022-07-23T01:06:45;24.02;;;6.15;;
61523;SDS011;47393;38.758;-9.164;2022-07-23T01:12:54;17.40;;;5.68;;
61523;SDS011;47393;38.758;-9.164;2022-07-23T01:16:09;19.35;;;5.10;;
61523;SDS011;47393;38.758;-9.164;2022-07-23T01:18:13;23.37;;;5.80;;
61523;SDS011;47393;38.758;-9.164;2022-07-23T01:20:20;24.08;;;7.00;;
61523;SDS011;47393;38.758;-9.164;2022-07-23T01:22:47;29.63;;;5.53;;
61523;SDS011;47393;38.758;-9.164;2022-07-23T01:24:52;22.08;;;5.43;;
61523;SDS011;47393;38.758;-9.164;2022-07-23T01:27:08;23.70;;;6.57;;
61523;SDS011;47393;38.758;-9.164;2022-07-23T01:29:13;27.55;;;6.20;;
61523;SDS011;47393;38.758;-9.164;2022-07-23T01:31:46;23.38;;;6.13;;
61523;SDS011;47393;38.758;-9.164;2022-07-23T01:34:13;26.23;;;5.93;;
61523;SDS011;47393;38.758;-9.164;2022-07-23T01:36:18;19.38;;;5.10;;
61523;SDS011;47393;38.758;-9.164;2022-07-23T01:38:29;30.88;;;7.00;;
61523;SDS011;47393;38.758;-9.164;2022-07-23T01:40:47;28.80;;;6.05;;
61523;SDS011;47393;38.758;-9.164;2022-07-23T01:43:54;24.95;;;5.35;;
61523;SDS011;47393;38.758;-9.164;2022-07-23T01:47:44;18.13;;;5.63;;
61523;SDS011;47393;38.758;-9.164;2022-07-23T01:51:10;27.92;;;5.88;;
61523;SDS011;47393;38.758;-9.164;2022-07-23T01:53:43;28.88;;;6.43;;
61523;SDS011;47393;38.758;-9.164;2022-07-23T01:56:49;19.20;;;5.78;;
61523;SDS011;47393;38.758;-9.164;2022-07-23T01:59:18;20.60;;;6.00;;
61523;SDS011;47393;38.758;-9.164;2022-07-23T02:01:23;26.77;;;5.90;;
61523;SDS011;47393;38.758;-9.164;2022-07-23T02:03:53;22.55;;;6.55;;
61523;SDS011;47393;38.758;-9.164;2022-07-23T02:06:13;33.35;;;6.43;;
61523;SDS011;47393;38.758;-9.164;2022-07-23T02:09:42;32.20;;;7.43;;
61523;SDS011;47393;38.758;-9.164;2022-07-23T02:12:34;22.38;;;6.22;;
61523;SDS011;47393;38.758;-9.164;2022-07-23T02:14:48;27.88;;;6.53;;
61523;SDS011;47393;38.758;-9.164;2022-07-23T02:27:55;26.35;;;6.97;;
61523;SDS011;47393;38.758;-9.164;2022-07-23T02:31:09;20.35;;;6.10;;
61523;SDS011;47393;38.758;-9.164;2022-07-23T02:33:50;27.33;;;6.28;;
61523;SDS011;47393;38.758;-9.164;2022-07-23T02:35:52;28.02;;;6.90;;
61523;SDS011;47393;38.758;-9.164;2022-07-23T02:37:56;26.60;;;6.35;;
61523;SDS011;47393;38.758;-9.164;2022-07-23T02:40:27;17.38;;;6.10;;
61523;SDS011;47393;38.758;-9.164;2022-07-23T02:42:30;22.75;;;6.22;;
61523;SDS011;47393;38.758;-9.164;2022-07-23T02:44:39;26.30;;;6.55;;
61523;SDS011;47393;38.758;-9.164;2022-07-23T02:46:42;23.00;;;6.40;;
61523;SDS011;47393;38.758;-9.164;2022-07-23T02:48:44;20.33;;;6.05;;
61523;SDS011;47393;38.758;-9.164;2022-07-23T02:50:45;25.98;;;6.88;;
61523;SDS011;47393;38.758;-9.164;2022-07-23T02:52:53;20.77;;;5.88;;
61523;SDS011;47393;38.758;-9.164;2022-07-23T02:55:21;23.35;;;6.72;;
61523;SDS011;47393;38.758;-9.164;2022-07-23T02:57:28;33.40;;;6.05;;
61523;SDS011;47393;38.758;-9.164;2022-07-23T02:59:31;27.98;;;6.80;;
61523;SDS011;47393;38.758;-9.164;2022-07-23T03:01:37;34.10;;;6.35;;
61523;SDS011;47393;38.758;-9.164;2022-07-23T03:03:41;24.38;;;7.13;;
61523;SDS011;47393;38.758;-9.164;2022-07-23T03:06:12;27.83;;;7.13;;
61523;SDS011;47393;38.758;-9.164;2022-07-23T03:08:16;21.02;;;6.78;;
61523;SDS011;47393;38.758;-9.164;2022-07-23T03:10:24;19.27;;;5.80;;
61523;SDS011;47393;38.758;-9.164;2022-07-23T03:15:45;16.42;;;5.45;;
61523;SDS011;47393;38.758;-9.164;2022-07-23T03:18:14;24.10;;;6.25;;
61523;SDS011;47393;38.758;-9.164;2022-07-23T03:20:20;32.13;;;7.10;;
61523;SDS011;47393;38.758;-9.164;2022-07-23T03:22:25;25.13;;;6.32;;
61523;SDS011;47393;38.758;-9.164;2022-07-23T03:25:40;32.08;;;7.70;;
61523;SDS011;47393;38.758;-9.164;2022-07-23T03:29:11;33.75;;;6.95;;
61523;SDS011;47393;38.758;-9.164;2022-07-23T03:32:16;20.63;;;5.80;;
61523;SDS011;47393;38.758;-9.164;2022-07-23T03:35:53;31.00;;;6.65;;
61523;SDS011;47393;38.758;-9.164;2022-07-23T03:39:24;17.85;;;6.07;;
61523;SDS011;47393;38.758;-9.164;2022-07-23T03:41:52;30.42;;;7.07;;
61523;SDS011;47393;38.758;-9.164;2022-07-23T03:44:22;22.90;;;7.35;;
61523;SDS011;47393;38.758;-9.164;2022-07-23T03:47:06;26.02;;;7.35;;
61523;SDS011;47393;38.758;-9.164;2022-07-23T03:49:48;26.75;;;6.72;;
61523;SDS011;47393;38.758;-9.164;2022-07-23T03:52:42;24.25;;;6.35;;
61523;SDS011;47393;38.758;-9.164;2022-07-23T03:55:01;28.17;;;6.95;;
61523;SDS011;47393;38.758;-9.164;2022-07-23T03:57:46;24.10;;;7.60;;
61523;SDS011;47393;38.758;-9.164;2022-07-23T03:59:54;31.17;;;5.70;;
61523;SDS011;47393;38.758;-9.164;2022-07-23T04:02:28;22.48;;;6.28;;
61523;SDS011;47393;38.758;-9.164;2022-07-23T04:04:47;31.10;;;7.20;;
61523;SDS011;47393;38.758;-9.164;2022-07-23T04:08:02;28.17;;;7.40;;
61523;SDS011;47393;38.758;-9.164;2022-07-23T04:15:09;37.90;;;7.85;;
61523;SDS011;47393;38.758;-9.164;2022-07-23T04:19:02;34.53;;;8.32;;
61523;SDS011;47393;38.758;-9.164;2022-07-23T04:26:03;26.20;;;6.75;;
61523;SDS011;47393;38.758;-9.164;2022-07-23T04:28:21;32.55;;;8.50;;
61523;SDS011;47393;38.758;-9.164;2022-07-23T04:31:10;24.65;;;7.43;;
61523;SDS011;47393;38.758;-9.164;2022-07-23T04:34:03;26.48;;;7.82;;
61523;SDS011;47393;38.758;-9.164;2022-07-23T04:36:51;36.00;;;7.88;;
61523;SDS011;47393;38.758;-9.164;2022-07-23T04:39:14;38.72;;;10.85;;
61523;SDS011;47393;38.758;-9.164;2022-07-23T04:41:46;27.23;;;8.77;;
61523;SDS011;47393;38.758;-9.164;2022-07-23T04:43:50;32.00;;;9.10;;
61523;SDS011;47393;38.758;-9.164;2022-07-23T04:46:20;34.80;;;9.50;;
61523;SDS011;47393;38.758;-9.164;2022-07-23T04:49:13;28.27;;;8.38;;
61523;SDS011;47393;38.758;-9.164;2022-07-23T05:00:08;28.92;;;8.02;;
61523;SDS011;47393;38.758;-9.164;2022-07-23T05:02:53;27.10;;;7.88;;
61523;SDS011;47393;38.758;-9.164;2022-07-23T05:05:19;34.92;;;8.73;;
61523;SDS011;47393;38.758;-9.164;2022-07-23T05:07:23;31.75;;;8.88;;
61523;SDS011;47393;38.758;-9.164;2022-07-23T05:10:17;24.08;;;8.80;;
61523;SDS011;47393;38.758;-9.164;2022-07-23T05:13:04;38.42;;;7.68;;
61523;SDS011;47393;38.758;-9.164;2022-07-23T05:17:03;24.27;;;7.78;;
61523;SDS011;47393;38.758;-9.164;2022-07-23T05:19:21;17.73;;;7.82;;
61523;SDS011;47393;38.758;-9.164;2022-07-23T05:21:53;23.98;;;8.32;;
61523;SDS011;47393;38.758;-9.164;2022-07-23T05:28:12;30.45;;;8.93;;
61523;SDS011;47393;38.758;-9.164;2022-07-23T05:31:52;31.00;;;9.40;;
61523;SDS011;47393;38.758;-9.164;2022-07-23T05:38:43;28.63;;;10.50;;
61523;SDS011;47393;38.758;-9.164;2022-07-23T05:42:23;30.38;;;8.90;;
61523;SDS011;47393;38.758;-9.164;2022-07-23T05:46:09;27.25;;;9.85;;
61523;SDS011;47393;38.758;-9.164;2022-07-23T05:48:51;27.20;;;8.73;;
61523;SDS011;47393;38.758;-9.164;2022-07-23T05:51:50;32.50;;;8.65;;
61523;SDS011;47393;38.758;-9.164;2022-07-23T05:54:30;24.17;;;8.13;;
61523;SDS011;47393;38.758;-9.164;2022-07-23T05:56:54;24.20;;;7.75;;
61523;SDS011;47393;38.758;-9.164;2022-07-23T05:59:26;28.30;;;7.72;;
61523;SDS011;47393;38.758;-9.164;2022-07-23T06:01:28;24.30;;;7.28;;
61523;SDS011;47393;38.758;-9.164;2022-07-23T06:03:41;13.50;;;5.93;;
61523;SDS011;47393;38.758;-9.164;2022-07-23T06:05:53;19.38;;;5.88;;
61523;SDS011;47393;38.758;-9.164;2022-07-23T06:08:47;25.25;;;6.63;;
61523;SDS011;47393;38.758;-9.164;2022-07-23T06:11:30;17.05;;;5.28;;
61523;SDS011;47393;38.758;-9.164;2022-07-23T06:14:49;22.67;;;5.35;;
61523;SDS011;47393;38.758;-9.164;2022-07-23T06:36:09;10.30;;;3.63;;
61523;SDS011;47393;38.758;-9.164;2022-07-23T06:38:32;12.80;;;3.65;;
61523;SDS011;47393;38.758;-9.164;2022-07-23T06:42:13;13.95;;;3.30;;
61523;SDS011;47393;38.758;-9.164;2022-07-23T06:45:46;10.10;;;3.15;;
61523;SDS011;47393;38.758;-9.164;2022-07-23T06:52:40;5.72;;;3.00;;
61523;SDS011;47393;38.758;-9.164;2022-07-23T06:59:29;13.50;;;3.47;;
61523;SDS011;47393;38.758;-9.164;2022-07-23T07:03:03;14.43;;;3.60;;
61523;SDS011;47393;38.758;-9.164;2022-07-23T07:06:51;10.25;;;3.92;;
61523;SDS011;47393;38.758;-9.164;2022-07-23T07:14:13;17.08;;;3.92;;
61523;SDS011;47393;38.758;-9.164;2022-07-23T07:17:20;10.02;;;3.53;;
61523;SDS011;47393;38.758;-9.164;2022-07-23T07:23:47;8.52;;;3.63;;
61523;SDS011;47393;38.758;-9.164;2022-07-23T07:26:28;9.60;;;3.40;;
61523;SDS011;47393;38.758;-9.164;2022-07-23T07:30:02;14.80;;;3.40;;
61523;SDS011;47393;38.758;-9.164;2022-07-23T07:33:21;12.50;;;3.88;;
61523;SDS011;47393;38.758;-9.164;2022-07-23T07:35:50;13.13;;;3.78;;
61523;SDS011;47393;38.758;-9.164;2022-07-23T07:38:06;8.90;;;3.47;;
61523;SDS011;47393;38.758;-9.164;2022-07-23T07:40:12;8.13;;;3.33;;
61523;SDS011;47393;38.758;-9.164;2022-07-23T07:42:26;8.65;;;3.40;;
61523;SDS011;47393;38.758;-9.164;2022-07-23T07:44:47;6.50;;;3.17;;
61523;SDS011;47393;38.758;-9.164;2022-07-23T07:47:19;11.48;;;3.38;;
61523;SDS011;47393;38.758;-9.164;2022-07-23T07:49:21;74.72;;;8.57;;
61523;SDS011;47393;38.758;-9.164;2022-07-23T07:51:25;51.55;;;4.78;;
61523;SDS011;47393;38.758;-9.164;2022-07-23T07:54:08;8.13;;;3.27;;
61523;SDS011;47393;38.758;-9.164;2022-07-23T07:56:11;8.43;;;3.15;;
61523;SDS011;47393;38.758;-9.164;2022-07-23T07:58:24;8.05;;;3.33;;
61523;SDS011;47393;38.758;-9.164;2022-07-23T08:00:44;13.27;;;3.95;;
61523;SDS011;47393;38.758;-9.164;2022-07-23T08:03:20;8.23;;;3.13;;
61523;SDS011;47393;38.758;-9.164;2022-07-23T08:05:52;12.45;;;3.60;;
61523;SDS011;47393;38.758;-9.164;2022-07-23T08:08:07;10.63;;;3.47;;
61523;SDS011;47393;38.758;-9.164;2022-07-23T08:10:12;6.97;;;3.38;;
61523;SDS011;47393;38.758;-9.164;2022-07-23T08:12:16;9.52;;;3.78;;
61523;SDS011;47393;38.758;-9.164;2022-07-23T08:14:21;9.55;;;3.30;;
61523;SDS011;47393;38.758;-9.164;2022-07-23T08:18:25;16.02;;;4.07;;
61523;SDS011;47393;38.758;-9.164;2022-07-23T08:20:44;11.15;;;3.63;;
61523;SDS011;47393;38.758;-9.164;2022-07-23T08:22:58;11.88;;;4.00;;
61523;SDS011;47393;38.758;-9.164;2022-07-23T08:25:10;15.80;;;3.72;;
61523;SDS011;47393;38.758;-9.164;2022-07-23T08:27:48;10.73;;;4.40;;
61523;SDS011;47393;38.758;-9.164;2022-07-23T08:30:27;17.05;;;4.15;;
61523;SDS011;47393;38.758;-9.164;2022-07-23T08:33:13;14.48;;;4.30;;
61523;SDS011;47393;38.758;-9.164;2022-07-23T08:35:45;11.52;;;3.88;;
61523;SDS011;47393;38.758;-9.164;2022-07-23T08:37:49;7.38;;;3.45;;
61523;SDS011;47393;38.758;-9.164;2022-07-23T08:40:11;13.95;;;4.35;;
61523;SDS011;47393;38.758;-9.164;2022-07-23T08:43:14;14.27;;;3.90;;
61523;SDS011;47393;38.758;-9.164;2022-07-23T08:46:29;19.85;;;4.80;;
61523;SDS011;47393;38.758;-9.164;2022-07-23T08:49:39;9.95;;;3.78;;
61523;SDS011;47393;38.758;-9.164;2022-07-23T08:53:08;14.57;;;3.80;;
61523;SDS011;47393;38.758;-9.164;2022-07-23T08:56:43;13.13;;;4.10;;
61523;SDS011;47393;38.758;-9.164;2022-07-23T09:00:26;9.65;;;3.58;;
61523;SDS011;47393;38.758;-9.164;2022-07-23T09:03:23;12.85;;;3.95;;
61523;SDS011;47393;38.758;-9.164;2022-07-23T09:06:46;10.18;;;3.28;;
61523;SDS011;47393;38.758;-9.164;2022-07-23T09:09:43;17.17;;;3.72;;
61523;SDS011;47393;38.758;-9.164;2022-07-23T09:12:09;17.60;;;4.03;;
61523;SDS011;47393;38.758;-9.164;2022-07-23T09:14:35;14.20;;;4.22;;
61523;SDS011;47393;38.758;-9.164;2022-07-23T09:16:46;12.57;;;4.10;;
61523;SDS011;47393;38.758;-9.164;2022-07-23T09:19:13;23.60;;;3.80;;
61523;SDS011;47393;38.758;-9.164;2022-07-23T09:21:37;10.00;;;3.42;;
61523;SDS011;47393;38.758;-9.164;2022-07-23T09:23:46;15.20;;;3.80;;
61523;SDS011;47393;38.758;-9.164;2022-07-23T09:25:48;8.80;;;3.47;;
61523;SDS011;47393;38.758;-9.164;2022-07-23T09:27:58;9.25;;;3.63;;
61523;SDS011;47393;38.758;-9.164;2022-07-23T09:30:26;14.70;;;3.88;;
61523;SDS011;47393;38.758;-9.164;2022-07-23T09:32:29;12.60;;;3.88;;
61523;SDS011;47393;38.758;-9.164;2022-07-23T09:34:41;13.88;;;4.03;;
61523;SDS011;47393;38.758;-9.164;2022-07-23T09:36:55;17.63;;;3.85;;
61523;SDS011;47393;38.758;-9.164;2022-07-23T09:39:22;14.73;;;4.38;;
61523;SDS011;47393;38.758;-9.164;2022-07-23T09:41:37;11.93;;;3.63;;
61523;SDS011;47393;38.758;-9.164;2022-07-23T09:43:55;10.93;;;3.80;;
61523;SDS011;47393;38.758;-9.164;2022-07-23T09:46:27;21.00;;;4.65;;
61523;SDS011;47393;38.758;-9.164;2022-07-23T09:48:28;13.48;;;4.18;;
61523;SDS011;47393;38.758;-9.164;2022-07-23T09:50:29;19.92;;;3.58;;
61523;SDS011;47393;38.758;-9.164;2022-07-23T09:52:48;15.38;;;3.67;;
61523;SDS011;47393;38.758;-9.164;2022-07-23T09:54:50;10.70;;;3.95;;
61523;SDS011;47393;38.758;-9.164;2022-07-23T09:57:10;19.48;;;4.05;;
61523;SDS011;47393;38.758;-9.164;2022-07-23T10:00:08;22.58;;;4.43;;
61523;SDS011;47393;38.758;-9.164;2022-07-23T10:03:20;10.57;;;3.75;;
61523;SDS011;47393;38.758;-9.164;2022-07-23T10:06:46;20.80;;;3.80;;
61523;SDS011;47393;38.758;-9.164;2022-07-23T10:09:52;11.98;;;3.92;;
61523;SDS011;47393;38.758;-9.164;2022-07-23T10:17:13;14.73;;;4.10;;
61523;SDS011;47393;38.758;-9.164;2022-07-23T10:20:26;14.60;;;3.55;;
61523;SDS011;47393;38.758;-9.164;2022-07-23T10:24:16;20.95;;;4.25;;
61523;SDS011;47393;38.758;-9.164;2022-07-23T10:30:52;11.38;;;3.67;;
61523;SDS011;47393;38.758;-9.164;2022-07-23T10:33:46;15.27;;;3.75;;
61523;SDS011;47393;38.758;-9.164;2022-07-23T10:36:16;10.77;;;3.58;;
61523;SDS011;47393;38.758;-9.164;2022-07-23T10:38:35;16.88;;;3.65;;
61523;SDS011;47393;38.758;-9.164;2022-07-23T10:41:19;15.98;;;3.65;;
61523;SDS011;47393;38.758;-9.164;2022-07-23T10:43:15;7.30;;;3.75;;
61523;SDS011;47393;38.758;-9.164;2022-07-23T10:45:23;17.33;;;4.28;;
61523;SDS011;47393;38.758;-9.164;2022-07-23T10:47:38;7.18;;;3.22;;
61523;SDS011;47393;38.758;-9.164;2022-07-23T10:49:48;10.55;;;3.95;;
61523;SDS011;47393;38.758;-9.164;2022-07-23T10:54:30;8.82;;;3.60;;
61523;SDS011;47393;38.758;-9.164;2022-07-23T10:57:10;9.93;;;3.45;;
61523;SDS011;47393;38.758;-9.164;2022-07-23T11:00:26;10.68;;;3.55;;
61523;SDS011;47393;38.758;-9.164;2022-07-23T11:04:11;11.48;;;3.50;;
61523;SDS011;47393;38.758;-9.164;2022-07-23T11:08:11;6.75;;;3.22;;
61523;SDS011;47393;38.758;-9.164;2022-07-23T11:11:07;8.07;;;3.03;;
61523;SDS011;47393;38.758;-9.164;2022-07-23T11:13:36;10.20;;;3.60;;
61523;SDS011;47393;38.758;-9.164;2022-07-23T11:16:04;27.67;;;3.33;;
61523;SDS011;47393;38.758;-9.164;2022-07-23T11:22:33;12.75;;;3.28;;
61523;SDS011;47393;38.758;-9.164;2022-07-23T11:28:51;10.00;;;3.08;;
61523;SDS011;47393;38.758;-9.164;2022-07-23T11:35:49;9.68;;;3.90;;
61523;SDS011;47393;38.758;-9.164;2022-07-23T11:39:08;8.13;;;3.45;;
61523;SDS011;47393;38.758;-9.164;2022-07-23T11:41:44;8.73;;;3.63;;
61523;SDS011;47393;38.758;-9.164;2022-07-23T11:43:49;15.23;;;4.22;;
61523;SDS011;47393;38.758;-9.164;2022-07-23T11:45:52;11.90;;;3.60;;
61523;SDS011;47393;38.758;-9.164;2022-07-23T11:47:59;6.25;;;3.30;;
61523;SDS011;47393;38.758;-9.164;2022-07-23T11:50:02;14.02;;;3.38;;
61523;SDS011;47393;38.758;-9.164;2022-07-23T11:52:10;8.68;;;3.38;;
61523;SDS011;47393;38.758;-9.164;2022-07-23T11:54:14;7.80;;;2.90;;
61523;SDS011;47393;38.758;-9.164;2022-07-23T11:56:17;10.75;;;3.72;;
61523;SDS011;47393;38.758;-9.164;2022-07-23T11:58:20;8.88;;;3.25;;
61523;SDS011;47393;38.758;-9.164;2022-07-23T12:00:23;11.55;;;3.53;;
61523;SDS011;47393;38.758;-9.164;2022-07-23T12:02:26;7.18;;;3.30;;
61523;SDS011;47393;38.758;-9.164;2022-07-23T12:04:39;13.68;;;3.75;;
61523;SDS011;47393;38.758;-9.164;2022-07-23T12:06:42;9.88;;;3.80;;
61523;SDS011;47393;38.758;-9.164;2022-07-23T12:08:49;12.07;;;3.30;;
61523;SDS011;47393;38.758;-9.164;2022-07-23T12:11:07;7.95;;;3.00;;
61523;SDS011;47393;38.758;-9.164;2022-07-23T12:13:15;18.23;;;3.75;;
61523;SDS011;47393;38.758;-9.164;2022-07-23T12:15:32;5.30;;;3.20;;
61523;SDS011;47393;38.758;-9.164;2022-07-23T12:17:36;10.07;;;4.05;;
61523;SDS011;47393;38.758;-9.164;2022-07-23T12:19:49;9.48;;;4.03;;
61523;SDS011;47393;38.758;-9.164;2022-07-23T12:22:20;12.68;;;3.60;;
61523;SDS011;47393;38.758;-9.164;2022-07-23T12:24:24;7.78;;;3.78;;
61523;SDS011;47393;38.758;-9.164;2022-07-23T12:27:22;12.85;;;3.53;;
61523;SDS011;47393;38.758;-9.164;2022-07-23T12:30:42;12.68;;;3.33;;
61523;SDS011;47393;38.758;-9.164;2022-07-23T12:32:54;14.45;;;4.32;;
61523;SDS011;47393;38.758;-9.164;2022-07-23T12:35:43;15.32;;;4.30;;
61523;SDS011;47393;38.758;-9.164;2022-07-23T12:39:06;16.02;;;5.70;;
61523;SDS011;47393;38.758;-9.164;2022-07-23T12:41:55;22.55;;;5.72;;
61523;SDS011;47393;38.758;-9.164;2022-07-23T12:47:53;18.63;;;6.35;;
61523;SDS011;47393;38.758;-9.164;2022-07-23T12:50:47;22.15;;;5.88;;
61523;SDS011;47393;38.758;-9.164;2022-07-23T12:52:50;20.13;;;5.60;;
61523;SDS011;47393;38.758;-9.164;2022-07-23T12:55:29;18.73;;;5.70;;
61523;SDS011;47393;38.758;-9.164;2022-07-23T12:57:51;27.40;;;6.18;;
61523;SDS011;47393;38.758;-9.164;2022-07-23T13:00:06;18.35;;;5.85;;
61523;SDS011;47393;38.758;-9.164;2022-07-23T13:02:09;18.55;;;5.25;;
61523;SDS011;47393;38.758;-9.164;2022-07-23T13:04:27;17.85;;;5.18;;
61523;SDS011;47393;38.758;-9.164;2022-07-23T13:06:52;18.13;;;4.70;;
61523;SDS011;47393;38.758;-9.164;2022-07-23T13:09:04;19.88;;;4.65;;
61523;SDS011;47393;38.758;-9.164;2022-07-23T13:11:07;18.33;;;5.10;;
61523;SDS011;47393;38.758;-9.164;2022-07-23T13:15:38;11.40;;;4.13;;
61523;SDS011;47393;38.758;-9.164;2022-07-23T13:17:44;13.27;;;5.18;;
61523;SDS011;47393;38.758;-9.164;2022-07-23T13:24:04;19.77;;;4.30;;
61523;SDS011;47393;38.758;-9.164;2022-07-23T13:27:10;36.83;;;5.45;;
61523;SDS011;47393;38.758;-9.164;2022-07-23T13:34:46;11.80;;;4.40;;
61523;SDS011;47393;38.758;-9.164;2022-07-23T13:37:54;9.25;;;4.00;;
61523;SDS011;47393;38.758;-9.164;2022-07-23T13:40:04;8.40;;;3.40;;
61523;SDS011;47393;38.758;-9.164;2022-07-23T13:42:24;6.43;;;2.78;;
61523;SDS011;47393;38.758;-9.164;2022-07-23T13:44:52;9.05;;;3.40;;
61523;SDS011;47393;38.758;-9.164;2022-07-23T13:47:28;4.55;;;2.47;;
61523;SDS011;47393;38.758;-9.164;2022-07-23T13:50:46;6.95;;;3.03;;
61523;SDS011;47393;38.758;-9.164;2022-07-23T13:53:30;7.15;;;2.88;;
61523;SDS011;47393;38.758;-9.164;2022-07-23T13:56:04;9.30;;;3.17;;
61523;SDS011;47393;38.758;-9.164;2022-07-23T13:58:09;6.78;;;3.00;;
61523;SDS011;47393;38.758;-9.164;2022-07-23T14:00:20;6.35;;;3.00;;
61523;SDS011;47393;38.758;-9.164;2022-07-23T14:03:29;6.35;;;3.13;;
61523;SDS011;47393;38.758;-9.164;2022-07-23T14:06:33;10.25;;;3.28;;
61523;SDS011;47393;38.758;-9.164;2022-07-23T14:08:41;6.05;;;2.65;;
61523;SDS011;47393;38.758;-9.164;2022-07-23T14:12:37;5.30;;;2.20;;
61523;SDS011;47393;38.758;-9.164;2022-07-23T14:18:50;5.55;;;2.67;;
61523;SDS011;47393;38.758;-9.164;2022-07-23T14:21:32;4.45;;;2.97;;
61523;SDS011;47393;38.758;-9.164;2022-07-23T14:24:13;4.70;;;2.53;;
61523;SDS011;47393;38.758;-9.164;2022-07-23T14:26:48;12.63;;;2.92;;
61523;SDS011;47393;38.758;-9.164;2022-07-23T14:30:37;4.75;;;2.88;;
61523;SDS011;47393;38.758;-9.164;2022-07-23T14:33:11;11.10;;;3.00;;
61523;SDS011;47393;38.758;-9.164;2022-07-23T14:36:04;5.75;;;3.10;;
61523;SDS011;47393;38.758;-9.164;2022-07-23T14:38:46;7.05;;;3.35;;
61523;SDS011;47393;38.758;-9.164;2022-07-23T14:41:28;6.40;;;3.40;;
61523;SDS011;47393;38.758;-9.164;2022-07-23T14:45:07;4.22;;;3.17;;
61523;SDS011;47393;38.758;-9.164;2022-07-23T14:48:36;6.60;;;3.70;;
61523;SDS011;47393;38.758;-9.164;2022-07-23T14:52:08;4.60;;;3.58;;
61523;SDS011;47393;38.758;-9.164;2022-07-23T14:55:31;8.82;;;3.58;;
61523;SDS011;47393;38.758;-9.164;2022-07-23T14:59:12;13.60;;;3.80;;
61523;SDS011;47393;38.758;-9.164;2022-07-23T15:03:09;10.38;;;4.18;;
61523;SDS011;47393;38.758;-9.164;2022-07-23T15:10:33;9.13;;;3.63;;
61523;SDS011;47393;38.758;-9.164;2022-07-23T15:13:45;6.40;;;3.90;;
61523;SDS011;47393;38.758;-9.164;2022-07-23T15:16:49;10.48;;;3.78;;
61523;SDS011;47393;38.758;-9.164;2022-07-23T15:19:56;16.73;;;4.10;;
61523;SDS011;47393;38.758;-9.164;2022-07-23T15:22:51;7.20;;;3.58;;
61523;SDS011;47393;38.758;-9.164;2022-07-23T15:25:56;8.05;;;3.58;;
61523;SDS011;47393;38.758;-9.164;2022-07-23T15:29:40;13.52;;;4.00;;
61523;SDS011;47393;38.758;-9.164;2022-07-23T15:33:12;8.15;;;3.72;;
61523;SDS011;47393;38.758;-9.164;2022-07-23T15:36:45;13.52;;;3.80;;
61523;SDS011;47393;38.758;-9.164;2022-07-23T15:44:13;8.20;;;3.67;;
61523;SDS011;47393;38.758;-9.164;2022-07-23T15:48:13;7.78;;;3.55;;
61523;SDS011;47393;38.758;-9.164;2022-07-23T15:50:44;4.85;;;3.17;;
61523;SDS011;47393;38.758;-9.164;2022-07-23T15:52:46;7.28;;;3.40;;
61523;SDS011;47393;38.758;-9.164;2022-07-23T15:55:10;10.90;;;3.60;;
61523;SDS011;47393;38.758;-9.164;2022-07-23T15:57:51;11.02;;;3.83;;
61523;SDS011;47393;38.758;-9.164;2022-07-23T16:00:25;7.95;;;3.00;;
61523;SDS011;47393;38.758;-9.164;2022-07-23T16:02:44;10.15;;;3.38;;
61523;SDS011;47393;38.758;-9.164;2022-07-23T16:04:56;8.27;;;3.30;;
61523;SDS011;47393;38.758;-9.164;2022-07-23T16:07:05;8.23;;;3.42;;
61523;SDS011;47393;38.758;-9.164;2022-07-23T16:10:03;8.40;;;3.35;;
61523;SDS011;47393;38.758;-9.164;2022-07-23T16:12:51;11.77;;;3.40;;
61523;SDS011;47393;38.758;-9.164;2022-07-23T16:15:53;5.82;;;3.33;;
61523;SDS011;47393;38.758;-9.164;2022-07-23T16:18:39;3.55;;;3.03;;
61523;SDS011;47393;38.758;-9.164;2022-07-23T16:21:45;11.10;;;4.13;;
61523;SDS011;47393;38.758;-9.164;2022-07-23T16:24:49;7.85;;;3.35;;
61523;SDS011;47393;38.758;-9.164;2022-07-23T16:27:44;7.72;;;3.28;;
61523;SDS011;47393;38.758;-9.164;2022-07-23T16:31:30;9.25;;;3.78;;
61523;SDS011;47393;38.758;-9.164;2022-07-23T16:33:46;7.25;;;2.97;;
61523;SDS011;47393;38.758;-9.164;2022-07-23T16:35:53;12.43;;;4.40;;
61523;SDS011;47393;38.758;-9.164;2022-07-23T16:39:07;11.13;;;3.47;;
61523;SDS011;47393;38.758;-9.164;2022-07-23T16:42:13;7.75;;;3.83;;
61523;SDS011;47393;38.758;-9.164;2022-07-23T16:56:12;15.05;;;4.28;;
61523;SDS011;47393;38.758;-9.164;2022-07-23T17:06:44;13.27;;;5.03;;
61523;SDS011;47393;38.758;-9.164;2022-07-23T17:10:22;13.77;;;5.10;;
61523;SDS011;47393;38.758;-9.164;2022-07-23T17:13:24;16.02;;;4.95;;
61523;SDS011;47393;38.758;-9.164;2022-07-23T17:15:33;13.73;;;4.90;;
61523;SDS011;47393;38.758;-9.164;2022-07-23T17:18:53;13.45;;;4.55;;
61523;SDS011;47393;38.758;-9.164;2022-07-23T17:22:17;6.85;;;4.20;;
61523;SDS011;47393;38.758;-9.164;2022-07-23T17:25:22;15.52;;;4.57;;
61523;SDS011;47393;38.758;-9.164;2022-07-23T17:29:23;11.63;;;3.63;;
61523;SDS011;47393;38.758;-9.164;2022-07-23T17:35:33;7.80;;;3.63;;
61523;SDS011;47393;38.758;-9.164;2022-07-23T17:38:50;10.38;;;4.53;;
61523;SDS011;47393;38.758;-9.164;2022-07-23T17:42:39;9.80;;;3.63;;
61523;SDS011;47393;38.758;-9.164;2022-07-23T17:46:11;8.38;;;3.28;;
61523;SDS011;47393;38.758;-9.164;2022-07-23T17:52:50;5.72;;;3.03;;
61523;SDS011;47393;38.758;-9.164;2022-07-23T17:55:12;9.13;;;3.85;;
61523;SDS011;47393;38.758;-9.164;2022-07-23T17:57:21;12.77;;;4.90;;
61523;SDS011;47393;38.758;-9.164;2022-07-23T17:59:53;13.13;;;3.72;;
61523;SDS011;47393;38.758;-9.164;2022-07-23T18:03:14;9.15;;;3.20;;
61523;SDS011;47393;38.758;-9.164;2022-07-23T18:06:12;11.02;;;3.58;;
61523;SDS011;47393;38.758;-9.164;2022-07-23T18:08:52;9.85;;;3.45;;
61523;SDS011;47393;38.758;-9.164;2022-07-23T18:11:53;11.93;;;3.10;;
61523;SDS011;47393;38.758;-9.164;2022-07-23T18:15:19;9.18;;;3.50;;
61523;SDS011;47393;38.758;-9.164;2022-07-23T18:18:44;7.22;;;3.88;;
61523;SDS011;47393;38.758;-9.164;2022-07-23T18:21:48;8.75;;;3.75;;